Time;durP1;ratioP1;P1;durP2;ratioP2;P2;SDS_P1;SDS_P2;PMS_P1;PMS_P2;Temp;Humidity;BMP_temperature;BMP_pressure;BME280_temperature;BME280_humidity;BME280_pressure;Samples;Min_cycle;Max_cycle;Signal;HPM_P1;HPM_P2
2021/12/17 00:03:44;;;;;;;22.30;9.85;;;3.60;99.90;;;;;;20890255;28;20427;-77
2021/12/17 00:13:46;;;;;;;24.67;10.68;;;3.60;99.90;;;;;;20906924;28;20028;-78
2021/12/17 00:54:56;;;;;;;24.88;10.02;;;3.30;99.90;;;;;;20950413;28;20127;-79
2021/12/17 01:05:00;;;;;;;19.83;9.75;;;3.20;99.90;;;;;;20921291;28;20068;-77
2021/12/17 01:15:05;;;;;;;18.02;8.63;;;3.30;99.90;;;;;;20912421;28;20033;-77
2021/12/17 01:36:19;;;;;;;23.45;9.63;;;3.50;99.90;;;;;;20911609;28;20052;-76
2021/12/17 01:46:24;;;;;;;22.77;9.68;;;3.50;99.90;;;;;;20908520;28;20033;-77
2021/12/17 02:06:29;;;;;;;21.98;10.20;;;3.50;99.90;;;;;;20907149;28;20025;-76
2021/12/17 02:37:19;;;;;;;17.35;8.55;;;3.70;99.90;;;;;;20907294;28;20155;-76
2021/12/17 02:47:40;;;;;;;19.00;8.35;;;3.90;99.90;;;;;;20907027;28;20029;-77
2021/12/17 02:57:41;;;;;;;14.00;7.00;;;4.10;99.90;;;;;;20905127;28;20116;-76
2021/12/17 03:07:45;;;;;;;;;;;4.30;99.90;;;;;;20907256;28;20052;-76
2021/12/17 03:27:53;;;;;;;11.40;6.15;;;4.50;99.90;;;;;;20911143;28;20036;-76
2021/12/17 03:37:54;;;;;;;;;;;4.40;99.90;;;;;;20919030;28;20119;-74
2021/12/17 03:47:55;;;;;;;10.52;5.63;;;4.50;99.90;;;;;;20917711;28;19908;-75
2021/12/17 03:58:02;;;;;;;10.63;5.65;;;4.50;99.90;;;;;;20900576;28;20036;-75
2021/12/17 04:08:05;;;;;;;12.02;6.15;;;4.50;99.90;;;;;;20916322;28;20029;-76
2021/12/17 04:18:15;;;;;;;14.10;6.47;;;4.40;99.90;;;;;;20917350;28;20123;-76
2021/12/17 04:28:16;;;;;;;15.15;7.53;;;4.40;99.90;;;;;;20926203;28;20032;-78
2021/12/17 04:38:20;;;;;;;13.93;7.25;;;4.40;99.90;;;;;;20936433;28;20104;-78
2021/12/17 04:58:44;;;;;;;14.57;7.60;;;4.40;99.90;;;;;;20912060;28;20037;-76
2021/12/17 05:08:46;;;;;;;17.10;8.63;;;4.40;99.90;;;;;;20911893;28;20119;-76
2021/12/17 05:28:57;;;;;;;17.05;8.93;;;4.40;99.90;;;;;;20909670;28;20032;-76
2021/12/17 05:39:04;;;;;;;15.25;8.20;;;4.40;99.90;;;;;;20908898;28;20033;-74
2021/12/17 05:49:08;;;;;;;15.75;7.80;;;4.40;99.90;;;;;;20907918;28;20029;-76
2021/12/17 05:59:09;;;;;;;;;;;4.40;99.90;;;;;;20907935;28;20037;-76
2021/12/17 06:09:09;;;;;;;23.00;9.15;;;4.40;99.90;;;;;;20909720;28;19916;-76
2021/12/17 06:19:13;;;;;;;21.20;9.35;;;4.40;99.90;;;;;;20909859;28;20029;-79
2021/12/17 06:29:16;;;;;;;17.98;8.32;;;4.50;99.90;;;;;;20915260;28;20033;-77
2021/12/17 06:39:19;;;;;;;16.77;8.38;;;4.50;99.90;;;;;;20911967;28;20033;-79
2021/12/17 07:40:42;;;;;;;19.55;9.13;;;4.50;99.90;;;;;;20928150;28;20132;-78
2021/12/17 07:50:44;;;;;;;23.83;10.68;;;4.60;99.90;;;;;;20927365;28;20037;-78
2021/12/17 08:01:08;;;;;;;19.30;8.77;;;4.60;99.90;;;;;;20928459;28;20045;-79
2021/12/17 08:11:09;;;;;;;19.23;9.25;;;4.60;99.90;;;;;;20927975;28;20118;-78
2021/12/17 08:31:31;;;;;;;18.17;9.10;;;4.70;99.90;;;;;;20922124;28;19935;-78
2021/12/17 08:41:32;;;;;;;19.02;9.30;;;4.80;99.90;;;;;;20916661;28;20423;-77
2021/12/17 08:51:36;;;;;;;15.93;8.95;;;4.80;99.90;;;;;;20912850;28;20488;-78
2021/12/17 09:01:37;;;;;;;15.55;8.00;;;4.90;99.90;;;;;;20912271;28;20029;-77
2021/12/17 09:11:38;;;;;;;;;;;5.00;99.90;;;;;;20915541;28;20480;-78
2021/12/17 09:21:57;;;;;;;15.23;8.00;;;5.00;99.90;;;;;;20919767;28;19916;-78
2021/12/17 09:32:17;;;;;;;15.82;8.30;;;5.00;99.90;;;;;;20888323;28;20492;-77
2021/12/17 09:42:18;;;;;;;15.10;8.40;;;5.10;99.90;;;;;;20877126;28;20024;-77
2021/12/17 09:52:19;;;;;;;14.10;6.87;;;5.20;99.90;;;;;;20875735;28;20291;-77
2021/12/17 10:02:20;;;;;;;17.13;7.50;;;5.20;99.90;;;;;;20874878;28;20035;-77
2021/12/17 10:12:27;;;;;;;13.90;7.10;;;5.20;99.90;;;;;;20872141;28;20366;-77
2021/12/17 10:22:29;;;;;;;14.15;7.60;;;5.20;99.90;;;;;;20871190;28;20430;-76
2021/12/17 10:32:30;;;;;;;18.33;7.95;;;5.30;99.90;;;;;;20871977;28;20110;-77
2021/12/17 10:42:39;;;;;;;14.73;7.70;;;5.40;99.90;;;;;;20885536;28;20851;-77
2021/12/17 10:52:45;;;;;;;12.60;7.05;;;5.40;99.90;;;;;;20888840;28;20021;-77
2021/12/17 11:02:50;;;;;;;17.17;8.15;;;5.30;99.90;;;;;;20885554;28;20043;-77
2021/12/17 11:12:51;;;;;;;14.93;7.55;;;5.30;99.90;;;;;;20891814;28;20408;-78
2021/12/17 11:22:54;;;;;;;14.77;7.57;;;5.40;99.90;;;;;;20886866;28;20067;-76
2021/12/17 11:32:56;;;;;;;16.48;8.07;;;5.40;99.90;;;;;;20890406;28;20054;-77
2021/12/17 11:43:34;;;;;;;17.17;8.25;;;5.40;99.90;;;;;;20885377;28;20033;-79
2021/12/17 11:53:42;;;;;;;15.50;7.28;;;5.50;99.90;;;;;;20883983;28;20041;-78
2021/12/17 12:03:42;;;;;;;14.50;7.07;;;5.60;99.90;;;;;;20888399;28;20553;-77
2021/12/17 12:13:52;;;;;;;15.33;6.83;;;5.70;99.90;;;;;;20888502;28;20028;-78
2021/12/17 12:23:56;;;;;;;12.88;7.32;;;5.70;99.90;;;;;;20886126;28;20496;-78
2021/12/17 12:34:00;;;;;;;14.32;6.15;;;5.80;99.90;;;;;;20882434;28;20152;-77
2021/12/17 12:44:01;;;;;;;13.38;6.75;;;5.90;99.90;;;;;;20902304;28;20036;-77
2021/12/17 12:54:07;;;;;;;9.87;5.60;;;6.00;99.90;;;;;;20914267;28;20024;-78
2021/12/17 13:04:08;;;;;;;9.82;5.65;;;6.10;99.90;;;;;;20931703;28;20341;-78
2021/12/17 13:14:09;;;;;;;12.13;5.23;;;6.00;99.90;;;;;;20907272;28;20032;-76
2021/12/17 13:24:13;;;;;;;12.35;5.50;;;6.10;99.90;;;;;;20929556;28;20091;-79
2021/12/17 13:34:16;;;;;;;10.70;5.70;;;6.00;99.90;;;;;;20925781;28;20388;-78
2021/12/17 13:44:25;;;;;;;9.05;5.00;;;6.00;99.90;;;;;;20931214;28;20071;-79
2021/12/17 13:54:26;;;;;;;13.73;6.43;;;5.80;99.90;;;;;;20921954;28;20087;-78
2021/12/17 14:04:27;;;;;;;12.30;5.78;;;5.80;99.90;;;;;;20920887;28;20033;-78
2021/12/17 14:14:28;;;;;;;15.57;7.53;;;5.80;99.90;;;;;;20925136;28;20036;-79
2021/12/17 14:24:29;;;;;;;9.40;5.63;;;5.90;99.90;;;;;;20933941;28;20461;-79
2021/12/17 14:34:40;;;;;;;10.40;5.32;;;5.90;99.90;;;;;;20934608;28;20057;-79
2021/12/17 14:44:52;;;;;;;12.90;5.82;;;5.80;99.90;;;;;;20932959;28;20037;-78
2021/12/17 15:05:18;;;;;;;11.27;6.30;;;5.60;99.90;;;;;;20929819;28;19913;-78
2021/12/17 15:15:22;;;;;;;23.73;11.73;;;5.30;99.90;;;;;;20936386;28;20029;-79
2021/12/17 15:25:23;;;;;;;14.23;7.45;;;5.10;99.90;;;;;;20941149;28;20506;-78
2021/12/17 15:35:26;;;;;;;12.15;6.15;;;4.80;99.90;;;;;;20943771;28;20033;-78
2021/12/17 15:45:27;;;;;;;10.95;6.05;;;4.70;99.90;;;;;;20946578;28;20059;-79
2021/12/17 15:55:29;;;;;;;16.02;9.15;;;4.40;99.90;;;;;;20945393;28;20037;-79
2021/12/17 16:05:31;;;;;;;13.82;6.78;;;4.30;99.90;;;;;;20943306;28;20132;-79
2021/12/17 16:25:51;;;;;;;13.70;7.32;;;4.50;99.90;;;;;;20941977;28;20135;-79
2021/12/17 16:35:52;;;;;;;16.58;8.10;;;4.60;99.90;;;;;;20939435;28;20029;-80
2021/12/17 16:56:25;;;;;;;88.30;35.35;;;4.50;99.90;;;;;;20955113;28;20045;-79
2021/12/17 17:06:25;;;;;;;20.23;10.80;;;4.50;99.90;;;;;;20937773;28;20119;-79
2021/12/17 17:16:27;;;;;;;19.20;9.60;;;4.50;99.90;;;;;;20941013;28;20082;-79
2021/12/17 17:26:29;;;;;;;18.25;9.98;;;4.50;99.90;;;;;;20933028;28;20076;-80
2021/12/17 17:36:30;;;;;;;31.98;16.20;;;4.30;99.90;;;;;;20945910;28;20035;-80
2021/12/17 17:46:32;;;;;;;23.50;11.60;;;4.40;99.90;;;;;;20952231;28;20553;-80
2021/12/17 17:56:33;;;;;;;21.90;11.60;;;4.30;99.90;;;;;;20891504;28;20025;-80
2021/12/17 18:06:33;;;;;;;21.25;10.02;;;4.40;99.90;;;;;;20869589;28;20059;-80
2021/12/17 18:16:34;;;;;;;23.20;10.73;;;4.40;99.90;;;;;;20851078;28;20025;-79
2021/12/17 18:26:35;;;;;;;21.35;10.85;;;4.30;99.90;;;;;;20861968;28;20108;-79
2021/12/17 18:36:36;;;;;;;;;;;4.30;99.90;;;;;;20852692;28;20037;-78
2021/12/17 18:46:44;;;;;;;24.83;12.88;;;4.30;99.90;;;;;;20847669;28;20296;-78
2021/12/17 18:56:45;;;;;;;31.90;13.05;;;4.20;99.90;;;;;;20850158;28;20040;-78
2021/12/17 19:06:47;;;;;;;;;;;4.20;99.90;;;;;;20861602;28;20065;-78
2021/12/17 19:16:48;;;;;;;23.73;11.00;;;4.30;99.90;;;;;;20854031;28;20351;-77
2021/12/17 19:26:50;;;;;;;31.88;15.10;;;4.30;99.90;;;;;;20921198;28;20037;-78
2021/12/17 19:36:51;;;;;;;35.60;15.13;;;4.30;99.90;;;;;;20900345;28;20028;-78
2021/12/17 19:57:02;;;;;;;33.63;14.35;;;4.30;99.90;;;;;;20880963;28;19913;-78
2021/12/17 20:07:03;;;;;;;;;;;4.30;99.90;;;;;;20897512;28;20044;-78
2021/12/17 20:17:04;;;;;;;36.72;16.90;;;4.30;99.90;;;;;;20856604;28;19960;-79
2021/12/17 20:27:08;;;;;;;;;;;4.30;99.90;;;;;;20861666;28;20049;-78
2021/12/17 20:37:10;;;;;;;31.10;16.25;;;4.30;99.90;;;;;;20860344;28;19909;-79
2021/12/17 20:47:11;;;;;;;42.58;17.27;;;4.30;99.90;;;;;;20874760;28;20029;-79
2021/12/17 20:57:12;;;;;;;;;;;4.30;99.90;;;;;;20939631;28;20073;-79
2021/12/17 21:07:13;;;;;;;39.03;16.92;;;4.30;99.90;;;;;;20925488;28;19940;-78
2021/12/17 21:17:14;;;;;;;39.05;17.48;;;4.30;99.90;;;;;;20927216;28;20033;-77
2021/12/17 21:27:15;;;;;;;;;;;4.30;99.90;;;;;;20920237;28;20029;-78
2021/12/17 21:37:16;;;;;;;38.63;18.52;;;4.30;99.90;;;;;;20918484;28;19908;-78
2021/12/17 21:47:17;;;;;;;;;;;4.30;99.90;;;;;;20922499;28;20036;-78
2021/12/17 21:57:18;;;;;;;43.05;17.45;;;4.30;99.90;;;;;;20926637;28;19908;-79
2021/12/17 22:07:19;;;;;;;;;;;4.30;99.90;;;;;;20895048;28;20040;-77
2021/12/17 22:17:20;;;;;;;33.53;16.08;;;4.20;99.90;;;;;;20870448;28;19909;-77
2021/12/17 22:27:21;;;;;;;41.25;17.63;;;4.20;99.90;;;;;;20866006;28;20064;-77
2021/12/17 22:37:22;;;;;;;;;;;4.20;99.90;;;;;;20874360;28;20037;-79
2021/12/17 22:47:23;;;;;;;33.38;15.48;;;4.20;99.90;;;;;;20860902;28;19920;-77
2021/12/17 22:57:25;;;;;;;;;;;4.20;99.90;;;;;;20866254;28;20025;-77
2021/12/17 23:07:42;;;;;;;34.60;16.53;;;4.20;99.90;;;;;;20863900;28;19913;-77
2021/12/17 23:17:43;;;;;;;40.90;17.58;;;4.20;99.90;;;;;;20863562;28;20553;-76
2021/12/17 23:27:44;;;;;;;;;;;4.10;99.90;;;;;;20882160;28;20036;-77
2021/12/17 23:37:45;;;;;;;38.43;17.43;;;4.10;99.90;;;;;;20904189;28;20311;-77
2021/12/17 23:47:46;;;;;;;34.97;17.15;;;4.10;99.90;;;;;;20913464;28;20033;-76
2021/12/17 23:57:46;;;;;;;;;;;4.10;99.90;;;;;;20904919;28;20519;-77
